createdAt,value
2019-04-11T00:00:59.558Z,93.90
2019-04-11T00:03:30.578Z,93.80
2019-04-11T00:06:01.438Z,93.70
2019-04-11T00:08:32.232Z,93.70
2019-04-11T00:11:04.082Z,93.80
2019-04-11T00:13:36.425Z,93.90
2019-04-11T00:16:08.839Z,93.90
2019-04-11T00:18:40.928Z,93.80
2019-04-11T00:21:12.765Z,93.90
2019-04-11T00:23:43.644Z,93.90
2019-04-11T00:26:14.502Z,93.80
2019-04-11T00:28:45.795Z,93.90
2019-04-11T00:31:16.966Z,93.90
2019-04-11T00:33:48.743Z,93.90
2019-04-11T00:36:20.043Z,93.90
2019-04-11T00:38:50.977Z,94.00
2019-04-11T00:41:21.828Z,94.00
2019-04-11T00:43:52.616Z,94.00
2019-04-11T00:46:24.553Z,94.10
2019-04-11T00:48:55.446Z,94.10
2019-04-11T00:51:26.289Z,94.10
2019-04-11T00:53:58.670Z,94.30
2019-04-11T00:56:30.488Z,94.30
2019-04-11T00:59:02.488Z,94.30
2019-04-11T01:01:33.692Z,94.40
2019-04-11T01:04:04.516Z,94.40
2019-04-11T01:06:36.507Z,94.30
2019-04-11T01:09:09.472Z,94.30
2019-04-11T01:11:40.713Z,94.30
2019-04-11T01:14:11.465Z,94.50
2019-04-11T01:16:50.682Z,94.70
2019-04-11T01:19:22.533Z,94.70
2019-04-11T01:21:53.370Z,94.90
2019-04-11T01:24:24.034Z,94.90
2019-04-11T01:26:54.742Z,94.90
2019-04-11T01:29:25.858Z,94.90
2019-04-11T01:32:02.247Z,95.10
2019-04-11T01:34:33.419Z,95.00
2019-04-11T01:37:04.162Z,95.10
2019-04-11T01:39:57.258Z,95.10
2019-04-11T01:42:28.737Z,95.10
2019-04-11T01:45:01.036Z,95.20
2019-04-11T01:47:53.315Z,95.30
2019-04-11T01:50:30.523Z,95.30
2019-04-11T02:08:47.178Z,95.80
2019-04-11T02:11:18.232Z,95.80
2019-04-11T02:13:50.249Z,96.00
2019-04-11T02:16:21.402Z,95.90
2019-04-11T02:18:52.122Z,96.00
2019-04-11T02:21:22.911Z,96.10
2019-04-11T02:23:59.673Z,96.20
2019-04-11T02:26:33.840Z,96.10
2019-04-11T02:29:05.521Z,96.20
2019-04-11T02:31:36.944Z,96.20
2019-04-11T02:34:08.783Z,96.20
2019-04-11T02:36:42.796Z,96.40
2019-04-11T02:39:17.635Z,96.50
2019-04-11T02:41:46.841Z,96.50
2019-04-11T02:44:50.924Z,96.50
2019-04-11T02:47:00.697Z,96.50
2019-04-11T02:49:24.284Z,96.60
2019-04-11T02:51:56.179Z,96.50
2019-04-11T02:54:28.226Z,96.60
2019-04-11T02:57:00.444Z,96.90
2019-04-11T02:59:31.954Z,96.80
2019-04-11T03:02:04.507Z,96.90
2019-04-11T03:04:36.989Z,97.00
2019-04-11T03:07:12.138Z,97.10
2019-04-11T03:09:44.044Z,97.10
2019-04-11T03:12:16.249Z,97.20
2019-04-11T03:15:05.417Z,97.30
2019-04-11T03:17:26.174Z,97.40
2019-04-11T03:20:02.803Z,97.50
2019-04-11T03:22:26.560Z,97.60
2019-04-11T03:25:00.050Z,97.60
2019-04-11T03:27:30.564Z,97.60
2019-04-11T03:30:02.960Z,97.70
2019-04-11T03:33:32.887Z,97.80
2019-04-11T03:35:59.544Z,97.90
2019-04-11T03:38:05.873Z,98.00
2019-04-11T03:40:30.478Z,97.90
2019-04-11T03:43:04.424Z,98.10
2019-04-11T03:45:38.654Z,98.30
2019-04-11T03:48:10.094Z,98.30
2019-04-11T03:50:32.324Z,98.40
2019-04-11T03:53:04.773Z,98.40
2019-04-11T03:55:36.863Z,98.30
2019-04-11T03:58:09.042Z,98.70
2019-04-11T04:00:43.904Z,98.80
2019-04-11T04:03:14.200Z,98.90
2019-04-11T04:05:45.218Z,99.10
2019-04-11T04:08:17.808Z,99.20
2019-04-11T04:11:09.175Z,99.20
2019-04-11T04:13:45.602Z,99.40
2019-04-11T04:16:46.825Z,99.50
2019-04-11T04:19:25.137Z,99.50
2019-04-11T04:22:20.095Z,99.40
2019-04-11T04:24:52.904Z,99.50
2019-04-11T04:27:27.440Z,99.40
2019-04-11T04:29:59.561Z,99.70
2019-04-11T04:32:32.401Z,99.80
2019-04-11T04:35:07.009Z,99.90
2019-04-11T04:37:41.011Z,99.90
2019-04-11T04:40:26.894Z,99.80
2019-04-11T04:42:50.327Z,99.90
2019-04-11T04:45:19.358Z,99.90
2019-04-11T04:47:56.943Z,99.90
2019-04-11T04:50:24.465Z,99.90
2019-04-11T04:52:58.195Z,99.90
2019-04-11T04:55:30.356Z,99.90
2019-04-11T04:58:02.595Z,99.90
2019-04-11T05:00:34.873Z,99.90
2019-04-11T05:03:10.378Z,99.90
2019-04-11T05:05:42.515Z,99.90
2019-04-11T05:08:14.480Z,99.90
2019-04-11T05:11:09.473Z,99.90
2019-04-11T05:13:40.908Z,99.90
2019-04-11T05:16:17.343Z,99.90
2019-04-11T05:18:45.066Z,99.90
2019-04-11T05:21:17.009Z,99.90
2019-04-11T05:23:48.077Z,99.90
2019-04-11T05:26:19.383Z,99.90
2019-04-11T05:28:51.002Z,99.90
2019-04-11T05:31:23.013Z,99.90
2019-04-11T05:33:53.971Z,99.90
2019-04-11T05:36:24.811Z,99.90
2019-04-11T05:38:56.575Z,99.90
2019-04-11T05:41:35.005Z,99.90
2019-04-11T05:44:08.869Z,99.90
2019-04-11T05:46:49.173Z,99.90
2019-04-11T05:49:21.176Z,99.90
2019-04-11T05:52:00.470Z,99.90
2019-04-11T05:54:42.837Z,99.90
2019-04-11T05:57:13.254Z,99.90
2019-04-11T05:59:49.330Z,99.90
2019-04-11T06:02:43.710Z,99.90
2019-04-11T06:05:23.879Z,99.90
2019-04-11T06:07:58.063Z,99.90
2019-04-11T06:10:42.855Z,99.90
2019-04-11T06:13:16.373Z,99.90
2019-04-11T06:15:49.829Z,99.90
2019-04-11T06:18:37.227Z,99.60
2019-04-11T06:21:11.683Z,99.50
2019-04-11T06:24:09.703Z,99.40
2019-04-11T06:26:52.912Z,99.30
2019-04-11T06:29:32.230Z,99.20
2019-04-11T06:32:22.188Z,99.20
2019-04-11T06:34:59.712Z,99.10
2019-04-11T06:38:03.994Z,98.80
2019-04-11T06:40:46.004Z,98.50
2019-04-11T06:43:27.839Z,98.10
2019-04-11T06:46:51.748Z,98.10
2019-04-11T06:49:38.421Z,97.70
2019-04-11T06:52:10.713Z,97.30
2019-04-11T06:55:02.777Z,97.50
2019-04-11T06:57:48.112Z,96.90
2019-04-11T07:00:19.086Z,96.70
2019-04-11T07:02:55.157Z,96.70
2019-04-11T07:05:28.855Z,96.30
2019-04-11T07:08:00.026Z,96.70
2019-04-11T07:10:36.649Z,96.10
2019-04-11T07:13:12.234Z,95.50
2019-04-11T07:15:57.438Z,95.30
2019-04-11T07:18:57.042Z,95.30
2019-04-11T07:21:33.818Z,94.50
2019-04-11T07:24:22.414Z,94.20
2019-04-11T07:26:59.452Z,93.20
2019-04-11T07:29:44.501Z,91.80
2019-04-11T07:32:18.018Z,92.00
2019-04-11T07:35:06.932Z,91.30
2019-04-11T07:37:47.467Z,91.00
2019-04-11T07:40:39.211Z,90.90
2019-04-11T07:43:24.944Z,90.60
2019-04-11T07:46:25.211Z,88.30
2019-04-11T07:49:01.635Z,88.40
2019-04-11T07:51:38.521Z,86.90
2019-04-11T07:54:15.883Z,86.30
2019-04-11T07:57:00.126Z,85.90
2019-04-11T07:59:49.083Z,83.00
2019-04-11T08:02:39.776Z,82.60
2019-04-11T08:05:39.003Z,80.40
2019-04-11T08:08:23.051Z,82.40
2019-04-11T08:11:11.597Z,78.10
2019-04-11T08:14:10.487Z,76.20
2019-04-11T08:17:11.973Z,75.90
2019-04-11T08:20:03.265Z,73.60
2019-04-11T08:22:41.202Z,70.20
2019-04-11T08:25:29.801Z,70.40
2019-04-11T08:28:07.613Z,68.20
2019-04-11T08:30:43.882Z,69.30
2019-04-11T08:33:28.701Z,66.50
2019-04-11T08:36:30.081Z,68.70
2019-04-11T08:39:03.006Z,64.90
2019-04-11T08:41:51.696Z,63.30
2019-04-11T08:44:26.518Z,62.20
2019-04-11T08:47:04.755Z,61.70
2019-04-11T08:49:43.855Z,59.40
2019-04-11T08:52:36.484Z,60.70
2019-04-11T08:55:21.138Z,62.40
2019-04-11T08:58:00.351Z,58.50
2019-04-11T09:00:38.078Z,60.30
2019-04-11T09:03:59.288Z,59.90
2019-04-11T09:06:23.266Z,58.00
2019-04-11T09:09:19.095Z,58.10
2019-04-11T09:11:56.245Z,57.40
2019-04-11T09:14:53.064Z,55.00
2019-04-11T09:17:34.249Z,51.80
2019-04-11T09:20:41.114Z,55.90
2019-04-11T09:23:19.750Z,52.90
2019-04-11T09:26:10.170Z,50.80
2019-04-11T09:28:53.669Z,52.00
2019-04-11T09:31:43.722Z,50.60
2019-04-11T09:34:33.586Z,51.10
2019-04-11T09:37:18.438Z,50.40
2019-04-11T09:40:23.961Z,51.60
2019-04-11T09:43:19.897Z,50.80
2019-04-11T09:46:24.006Z,50.00
2019-04-11T09:49:13.639Z,45.70
2019-04-11T09:52:02.566Z,46.40
2019-04-11T09:54:52.893Z,47.10
2019-04-11T09:57:32.393Z,46.60
2019-04-11T10:00:22.915Z,47.10
2019-04-11T10:03:19.753Z,48.70
2019-04-11T10:06:09.460Z,47.90
2019-04-11T10:08:44.079Z,46.60
2019-04-11T10:11:32.566Z,46.70
2019-04-11T10:14:10.538Z,48.30
2019-04-11T10:17:00.490Z,46.20
2019-04-11T10:19:42.400Z,45.40
2019-04-11T10:22:41.502Z,46.70
2019-04-11T10:25:16.974Z,47.20
2019-04-11T10:28:05.321Z,45.30
2019-04-11T10:31:02.763Z,45.60
2019-04-11T10:33:42.502Z,45.70
2019-04-11T10:36:31.561Z,44.00
2019-04-11T10:39:21.487Z,43.40
2019-04-11T10:41:55.956Z,44.80
2019-04-11T10:44:40.876Z,45.60
2019-04-11T10:47:16.566Z,44.80
2019-04-11T10:50:19.578Z,45.30
2019-04-11T10:52:55.631Z,40.80
2019-04-11T10:55:37.843Z,41.40
2019-04-11T10:58:13.067Z,43.40
2019-04-11T11:01:03.980Z,42.40
2019-04-11T11:03:47.229Z,42.20
2019-04-11T11:06:21.864Z,41.60
2019-04-11T11:09:10.729Z,40.50
2019-04-11T11:12:05.788Z,40.80
2019-04-11T11:14:55.303Z,40.80
2019-04-11T11:18:00.979Z,40.40
2019-04-11T11:20:38.554Z,41.30
2019-04-11T11:23:30.976Z,39.20
2019-04-11T11:26:26.178Z,40.00
2019-04-11T11:29:26.503Z,40.30
2019-04-11T11:32:00.845Z,41.10
2019-04-11T11:35:01.158Z,42.10
2019-04-11T11:37:49.792Z,42.00
2019-04-11T11:40:40.960Z,42.50
2019-04-11T11:43:31.085Z,41.80
2019-04-11T11:46:19.684Z,45.10
2019-04-11T11:48:54.450Z,43.00
2019-04-11T11:51:39.532Z,42.90
2019-04-11T11:54:39.716Z,42.60
2019-04-11T11:57:15.335Z,43.60
2019-04-11T12:00:01.138Z,44.00
2019-04-11T12:02:51.972Z,45.00
2019-04-11T12:05:27.022Z,46.60
2019-04-11T12:08:30.794Z,44.80
2019-04-11T12:11:08.146Z,44.50
2019-04-11T12:14:02.079Z,40.40
2019-04-11T12:16:54.818Z,38.50
2019-04-11T12:19:51.138Z,35.30
2019-04-11T12:22:20.110Z,31.90
2019-04-11T12:25:00.578Z,32.40
2019-04-11T12:27:56.528Z,29.80
2019-04-11T12:30:44.994Z,28.10
2019-04-11T12:33:37.499Z,26.30
2019-04-11T12:36:10.711Z,26.60
2019-04-11T12:38:59.962Z,26.10
2019-04-11T12:41:53.003Z,26.20
2019-04-11T12:44:51.544Z,26.70
2019-04-11T12:47:26.899Z,28.70
2019-04-11T12:50:28.617Z,33.50
2019-04-11T12:53:19.389Z,37.50
2019-04-11T12:56:16.988Z,37.50
2019-04-11T12:59:15.599Z,32.20
2019-04-11T13:02:04.341Z,28.80
2019-04-11T13:04:39.464Z,29.10
2019-04-11T13:07:32.980Z,31.40
2019-04-11T13:10:33.884Z,30.10
2019-04-11T13:13:23.600Z,31.10
2019-04-11T13:16:12.754Z,28.80
2019-04-11T13:19:04.357Z,26.70
2019-04-11T13:21:50.203Z,25.30
2019-04-11T13:24:42.739Z,24.10
2019-04-11T13:27:18.853Z,22.70
2019-04-11T13:30:08.665Z,24.50
2019-04-11T13:32:50.117Z,28.30
2019-04-11T13:35:38.356Z,27.40
2019-04-11T13:38:14.626Z,27.40
2019-04-11T13:41:08.697Z,28.00
2019-04-11T13:44:21.208Z,25.80
2019-04-11T13:47:12.387Z,25.60
2019-04-11T13:49:50.210Z,26.90
2019-04-11T13:52:40.198Z,28.20
2019-04-11T13:55:29.331Z,29.70
2019-04-11T13:58:17.663Z,28.10
2019-04-11T14:00:51.029Z,24.50
2019-04-11T14:03:40.786Z,24.00
2019-04-11T14:06:19.559Z,24.00
2019-04-11T14:09:24.510Z,25.50
2019-04-11T14:12:08.210Z,29.60
2019-04-11T14:14:58.006Z,33.90
2019-04-11T14:17:46.886Z,36.70
2019-04-11T14:20:29.747Z,38.70
2019-04-11T14:23:24.958Z,36.40
2019-04-11T14:26:13.586Z,29.90
2019-04-11T14:29:03.733Z,27.70
2019-04-11T14:32:05.635Z,28.70
2019-04-11T14:34:54.298Z,26.90
2019-04-11T14:37:44.480Z,25.00
2019-04-11T14:40:33.363Z,25.80
2019-04-11T14:43:16.854Z,24.80
2019-04-11T14:46:12.994Z,26.60
2019-04-11T14:48:45.625Z,28.50
2019-04-11T14:51:28.742Z,28.70
2019-04-11T14:54:07.758Z,30.10
2019-04-11T14:56:44.067Z,34.50
2019-04-11T14:59:30.725Z,35.70
2019-04-11T15:02:08.902Z,36.20
2019-04-11T15:05:01.527Z,37.60
2019-04-11T15:07:36.507Z,38.80
2019-04-11T15:10:34.140Z,37.90
2019-04-11T15:13:17.896Z,39.40
2019-04-11T15:16:15.264Z,37.20
2019-04-11T15:18:52.805Z,37.90
2019-04-11T15:21:44.248Z,37.50
2019-04-11T15:24:18.898Z,38.50
2019-04-11T15:27:06.559Z,37.90
2019-04-11T15:29:45.905Z,37.00
2019-04-11T15:32:43.171Z,37.60
2019-04-11T15:35:15.689Z,38.00
2019-04-11T15:38:04.042Z,39.10
2019-04-11T15:40:44.190Z,40.30
2019-04-11T15:43:42.011Z,41.10
2019-04-11T15:46:31.187Z,42.00
2019-04-11T15:49:33.177Z,43.00
2019-04-11T15:52:09.684Z,42.90
2019-04-11T15:54:58.005Z,44.20
2019-04-11T15:57:34.340Z,44.00
2019-04-11T16:00:34.331Z,43.80
2019-04-11T16:03:12.318Z,42.50
2019-04-11T16:06:11.221Z,42.10
2019-04-11T16:09:13.202Z,41.60
2019-04-11T16:12:18.359Z,42.10
2019-04-11T16:15:09.103Z,42.40
2019-04-11T16:18:01.552Z,44.20
2019-04-11T16:20:33.948Z,44.90
2019-04-11T16:23:26.319Z,45.40
2019-04-11T16:25:59.093Z,44.60
2019-04-11T16:28:47.568Z,45.60
2019-04-11T16:31:18.382Z,45.30
2019-04-11T16:33:56.072Z,45.10
2019-04-11T16:36:44.587Z,45.70
2019-04-11T16:39:52.058Z,45.40
2019-04-11T16:42:41.110Z,47.00
2019-04-11T16:45:38.290Z,46.90
2019-04-11T16:48:11.909Z,47.00
2019-04-11T16:50:42.657Z,46.80
2019-04-11T16:53:13.428Z,46.70
2019-04-11T16:55:44.231Z,46.40
2019-04-11T16:58:19.618Z,47.30
2019-04-11T17:00:53.330Z,47.00
2019-04-11T17:03:25.763Z,47.10
2019-04-11T17:06:04.412Z,47.30
2019-04-11T17:09:00.083Z,47.80
2019-04-11T17:11:30.871Z,48.20
2019-04-11T17:14:03.836Z,47.10
2019-04-11T17:16:35.413Z,47.10
2019-04-11T17:19:06.306Z,48.30
2019-04-11T17:21:43.074Z,47.00
2019-04-11T17:24:09.807Z,48.00
2019-04-11T17:26:42.357Z,47.20
2019-04-11T17:29:15.880Z,48.30
2019-04-11T17:31:47.316Z,47.70
2019-04-11T17:34:18.187Z,47.80
2019-04-11T17:36:49.069Z,47.80
2019-04-11T17:39:25.846Z,47.60
2019-04-11T17:41:56.724Z,47.70
2019-04-11T17:44:32.491Z,48.10
2019-04-11T17:47:04.022Z,48.10
2019-04-11T17:49:36.383Z,48.20
2019-04-11T17:52:09.753Z,48.80
2019-04-11T17:54:42.316Z,48.80
2019-04-11T17:57:13.139Z,49.70
2019-04-11T17:59:48.731Z,49.60
2019-04-11T18:02:19.489Z,49.50
2019-04-11T18:04:50.419Z,48.80
2019-04-11T18:07:21.418Z,49.20
2019-04-11T18:09:56.195Z,49.60
2019-04-11T18:12:26.840Z,49.10
2019-04-11T18:14:59.872Z,49.60
2019-04-11T18:17:29.978Z,48.60
2019-04-11T18:20:00.747Z,48.80
2019-04-11T18:23:50.667Z,48.00
2019-04-11T18:25:27.759Z,47.00
2019-04-11T18:28:00.103Z,47.30
2019-04-11T18:30:31.085Z,47.30
2019-04-11T18:33:01.822Z,47.50
2019-04-11T18:35:32.549Z,47.50
2019-04-11T18:38:03.499Z,48.40
2019-04-11T18:40:34.342Z,48.20
2019-04-11T18:43:07.538Z,49.80
2019-04-11T18:45:38.365Z,49.60
2019-04-11T18:48:09.091Z,49.50
2019-04-11T18:50:39.972Z,49.30
2019-04-11T18:53:10.734Z,50.00
2019-04-11T18:55:41.538Z,50.70
2019-04-11T18:58:12.292Z,51.40
2019-04-11T19:00:46.077Z,51.50
2019-04-11T19:03:17.830Z,51.70
2019-04-11T19:05:48.588Z,51.30
2019-04-11T19:08:21.959Z,51.60
2019-04-11T19:10:54.474Z,51.70
2019-04-11T19:13:31.040Z,52.20
2019-04-11T19:16:02.620Z,53.70
2019-04-11T19:18:36.070Z,53.80
2019-04-11T19:21:06.866Z,54.00
2019-04-11T19:23:42.298Z,54.50
2019-04-11T19:26:16.290Z,54.90
2019-04-11T19:29:00.195Z,55.20
2019-04-11T19:31:36.263Z,55.30
2019-04-11T19:34:17.742Z,55.80
2019-04-11T19:37:04.071Z,56.30
2019-04-11T19:39:45.162Z,56.50
2019-04-11T19:42:18.983Z,56.90
2019-04-11T19:44:49.687Z,57.00
2019-04-11T19:47:21.684Z,58.20
2019-04-11T19:49:53.227Z,59.30
2019-04-11T19:52:31.853Z,60.20
2019-04-11T19:55:09.328Z,61.10
2019-04-11T19:57:41.031Z,61.40
2019-04-11T20:00:22.054Z,62.80
2019-04-11T20:02:54.123Z,63.20
2019-04-11T20:05:25.516Z,64.70
2019-04-11T20:07:56.358Z,66.00
2019-04-11T20:10:31.380Z,66.20
2019-04-11T20:13:02.692Z,66.70
2019-04-11T20:15:37.197Z,67.50
2019-04-11T20:18:06.019Z,68.10
2019-04-11T20:20:37.603Z,68.70
2019-04-11T20:23:10.893Z,69.30
2019-04-11T20:25:48.973Z,70.40
2019-04-11T20:28:19.943Z,70.60
2019-04-11T20:30:49.967Z,70.90
2019-04-11T20:33:27.303Z,73.10
2019-04-11T20:35:54.210Z,72.80
2019-04-11T20:40:52.117Z,73.50
2019-04-11T20:43:25.443Z,73.80
2019-04-11T20:45:57.896Z,73.90
2019-04-11T20:48:27.426Z,74.00
2019-04-11T20:50:58.263Z,74.00
2019-04-11T20:53:29.964Z,74.20
2019-04-11T20:56:00.643Z,73.50
2019-04-11T20:58:31.440Z,73.40
2019-04-11T21:01:02.379Z,73.10
2019-04-11T21:03:33.263Z,73.30
2019-04-11T21:06:04.007Z,73.50
2019-04-11T21:08:36.722Z,72.70
2019-04-11T21:11:08.321Z,72.80
2019-04-11T21:13:39.068Z,72.80
2019-04-11T21:16:09.798Z,72.20
2019-04-11T21:18:40.567Z,72.10
2019-04-11T21:21:11.292Z,74.30
2019-04-11T21:23:42.095Z,72.80
2019-04-11T21:26:12.943Z,72.10
2019-04-11T21:28:58.758Z,73.50
2019-04-11T21:31:30.847Z,73.00
2019-04-11T21:34:02.290Z,72.80
2019-04-11T21:36:32.370Z,73.50
2019-04-11T21:39:05.662Z,74.20
2019-04-11T21:41:38.810Z,74.20
2019-04-11T21:44:09.587Z,73.60
2019-04-11T21:46:42.021Z,74.30
2019-04-11T21:49:12.946Z,74.10
2019-04-11T21:51:43.704Z,74.20
2019-04-11T21:54:15.815Z,73.40
2019-04-11T21:56:49.725Z,74.50
2019-04-11T21:59:20.958Z,74.30
2019-04-11T22:01:54.671Z,75.30
2019-04-11T22:04:27.503Z,75.10
2019-04-11T22:07:01.012Z,74.90
2019-04-11T22:09:33.046Z,75.10
2019-04-11T22:12:07.663Z,75.60
2019-04-11T22:14:41.243Z,76.60
2019-04-11T22:17:09.961Z,76.60
2019-04-11T22:19:45.302Z,76.70
2019-04-11T22:22:13.157Z,76.80
2019-04-11T22:24:43.899Z,77.40
2019-04-11T22:27:14.604Z,77.40
2019-04-11T22:29:45.312Z,77.20
2019-04-11T22:32:16.082Z,79.00
2019-04-11T22:34:47.306Z,78.10
2019-04-11T22:37:17.960Z,78.60
2019-04-11T22:39:48.677Z,79.10
2019-04-11T22:42:19.559Z,78.40
2019-04-11T22:44:50.292Z,78.90
2019-04-11T22:47:21.110Z,79.10
2019-04-11T22:49:51.933Z,80.00
2019-04-11T22:52:22.595Z,80.20
2019-04-11T22:54:54.447Z,82.00
2019-04-11T22:57:26.716Z,81.40
2019-04-11T23:00:00.561Z,81.20
2019-04-11T23:02:53.277Z,81.50
2019-04-11T23:05:24.117Z,81.30
2019-04-11T23:07:54.882Z,81.50
2019-04-11T23:10:25.577Z,82.60
2019-04-11T23:12:56.469Z,82.40
2019-04-11T23:15:27.192Z,82.50
2019-04-11T23:17:57.825Z,81.90
2019-04-11T23:20:30.943Z,82.80
2019-04-11T23:23:01.689Z,83.40
2019-04-11T23:25:33.093Z,83.20
2019-04-11T23:28:03.842Z,83.30
2019-04-11T23:30:36.283Z,84.20
2019-04-11T23:33:07.093Z,83.60
2019-04-11T23:35:37.850Z,83.90
2019-04-11T23:38:08.629Z,84.40
2019-04-11T23:40:39.490Z,83.80
2019-04-11T23:43:10.178Z,84.10
2019-04-11T23:45:40.917Z,84.00
2019-04-11T23:48:11.596Z,86.30
2019-04-11T23:50:42.427Z,85.50
2019-04-11T23:53:13.253Z,84.10
2019-04-11T23:55:43.990Z,84.60
2019-04-11T23:58:14.809Z,84.60
